createdAt,value
2019-02-21T00:00:04.289Z,1.20
2019-02-21T00:02:32.870Z,1.20
2019-02-21T00:05:01.434Z,1.10
2019-02-21T00:07:30.023Z,1.00
2019-02-21T00:09:58.587Z,1.10
2019-02-21T00:12:27.170Z,1.00
2019-02-21T00:14:55.744Z,1.00
2019-02-21T00:17:24.307Z,0.90
2019-02-21T00:19:52.983Z,0.80
2019-02-21T00:22:21.562Z,0.70
2019-02-21T00:24:50.148Z,0.80
2019-02-21T00:27:18.990Z,0.70
2019-02-21T00:29:47.747Z,0.70
2019-02-21T00:32:16.306Z,0.70
2019-02-21T00:34:44.895Z,0.60
2019-02-21T00:37:13.459Z,0.60
2019-02-21T00:39:42.046Z,0.60
2019-02-21T00:42:10.618Z,0.60
2019-02-21T00:44:39.207Z,0.60
2019-02-21T00:47:07.777Z,0.60
2019-02-21T00:49:36.360Z,0.60
2019-02-21T00:52:04.925Z,0.50
2019-02-21T00:54:33.508Z,0.50
2019-02-21T00:57:02.070Z,0.50
2019-02-21T00:59:30.665Z,0.50
2019-02-21T01:01:59.227Z,0.40
2019-02-21T01:04:27.810Z,0.30
2019-02-21T01:06:56.383Z,0.30
2019-02-21T01:09:25.043Z,0.30
2019-02-21T01:11:53.779Z,0.30
2019-02-21T01:14:22.364Z,0.30
2019-02-21T01:16:50.930Z,0.30
2019-02-21T01:19:19.531Z,0.30
2019-02-21T01:21:48.155Z,0.30
2019-02-21T01:24:17.019Z,0.30
2019-02-21T01:26:45.578Z,0.30
2019-02-21T01:29:14.235Z,0.20
2019-02-21T01:31:42.807Z,0.20
2019-02-21T01:34:11.391Z,0.10
2019-02-21T01:36:39.959Z,0.00
2019-02-21T01:39:08.610Z,0.00
2019-02-21T01:41:37.174Z,0.00
2019-02-21T01:44:05.762Z,-0.10
2019-02-21T01:46:34.335Z,-0.10
2019-02-21T01:49:02.920Z,-0.10
2019-02-21T01:51:31.496Z,-0.10
2019-02-21T01:54:00.082Z,-0.10
2019-02-21T01:56:28.667Z,-0.10
2019-02-21T01:58:57.248Z,-0.20
2019-02-21T02:01:25.831Z,-0.20
2019-02-21T02:03:54.423Z,-0.20
2019-02-21T02:06:22.997Z,-0.30
2019-02-21T02:08:51.655Z,-0.30
2019-02-21T02:11:20.228Z,-0.30
2019-02-21T02:13:48.827Z,-0.30
2019-02-21T02:16:17.399Z,-0.30
2019-02-21T02:18:45.999Z,-0.30
2019-02-21T02:21:14.574Z,-0.30
2019-02-21T02:23:43.163Z,-0.30
2019-02-21T02:26:11.739Z,-0.30
2019-02-21T02:28:40.327Z,-0.30
2019-02-21T02:31:21.495Z,-0.30
2019-02-21T02:33:39.144Z,-0.30
2019-02-21T02:36:07.711Z,-0.20
2019-02-21T02:38:36.386Z,-0.10
2019-02-21T02:41:04.888Z,-0.10
2019-02-21T02:43:33.456Z,-0.10
2019-02-21T02:46:02.041Z,0.00
2019-02-21T02:48:30.604Z,0.00
2019-02-21T02:50:59.186Z,0.00
2019-02-21T02:53:27.758Z,0.00
2019-02-21T02:55:56.355Z,0.00
2019-02-21T02:58:24.920Z,0.00
2019-02-21T03:00:53.505Z,0.00
2019-02-21T03:03:22.212Z,0.10
2019-02-21T03:05:50.794Z,0.10
2019-02-21T03:08:19.367Z,0.00
2019-02-21T03:10:47.948Z,0.10
2019-02-21T03:13:16.519Z,-0.10
2019-02-21T03:15:45.118Z,-0.20
2019-02-21T03:18:13.679Z,0.00
2019-02-21T03:20:42.264Z,0.00
2019-02-21T03:23:10.831Z,0.10
2019-02-21T03:25:39.418Z,-0.10
2019-02-21T03:28:07.993Z,-0.20
2019-02-21T03:30:36.605Z,-0.30
2019-02-21T03:33:05.157Z,-0.40
2019-02-21T03:35:33.743Z,-0.30
2019-02-21T03:38:02.311Z,-0.30
2019-02-21T03:40:30.973Z,-0.30
2019-02-21T03:42:59.542Z,-0.30
2019-02-21T03:45:28.140Z,-0.20
2019-02-21T03:47:56.719Z,-0.10
2019-02-21T03:50:25.316Z,-0.10
2019-02-21T03:52:53.888Z,0.00
2019-02-21T03:55:22.476Z,0.10
2019-02-21T03:57:51.036Z,0.10
2019-02-21T04:00:19.631Z,0.10
2019-02-21T04:02:48.195Z,0.00
2019-02-21T04:05:16.809Z,0.00
2019-02-21T04:07:45.356Z,0.00
2019-02-21T04:10:13.938Z,0.10
2019-02-21T04:12:42.512Z,0.10
2019-02-21T04:15:12.863Z,0.00
2019-02-21T04:17:41.439Z,0.00
2019-02-21T04:20:10.568Z,0.10
2019-02-21T04:22:39.127Z,0.10
2019-02-21T04:25:07.788Z,0.10
2019-02-21T04:27:36.355Z,0.10
2019-02-21T04:30:05.801Z,0.10
2019-02-21T04:32:34.356Z,0.00
2019-02-21T04:35:02.940Z,0.00
2019-02-21T04:37:31.499Z,0.10
2019-02-21T04:40:00.318Z,0.10
2019-02-21T04:42:28.992Z,0.10
2019-02-21T04:44:57.542Z,0.10
2019-02-21T04:47:26.111Z,0.10
2019-02-21T04:49:54.703Z,0.20
2019-02-21T04:52:23.272Z,0.20
2019-02-21T04:54:51.867Z,0.20
2019-02-21T04:57:20.449Z,0.20
2019-02-21T04:59:49.111Z,0.20
2019-02-21T05:02:28.185Z,0.30
2019-02-21T05:04:47.923Z,0.30
2019-02-21T05:07:16.491Z,0.50
2019-02-21T05:09:56.998Z,0.50
2019-02-21T05:12:15.305Z,0.40
2019-02-21T05:14:43.856Z,0.40
2019-02-21T05:17:12.439Z,0.40
2019-02-21T05:19:41.004Z,0.50
2019-02-21T05:22:09.592Z,0.60
2019-02-21T05:24:38.220Z,0.60
2019-02-21T05:27:10.801Z,0.70
2019-02-21T05:29:39.376Z,0.90
2019-02-21T05:32:12.420Z,0.80
2019-02-21T05:34:42.626Z,0.80
2019-02-21T05:37:12.860Z,0.70
2019-02-21T05:39:54.961Z,0.70
2019-02-21T05:42:29.975Z,0.70
2019-02-21T05:45:15.196Z,0.80
2019-02-21T05:47:54.588Z,1.00
2019-02-21T05:50:33.644Z,1.10
2019-02-21T05:53:12.900Z,1.00
2019-02-21T05:55:57.912Z,0.80
2019-02-21T05:58:30.933Z,0.70
2019-02-21T06:01:06.859Z,0.70
2019-02-21T06:03:43.303Z,0.70
2019-02-21T06:06:17.302Z,0.70
2019-02-21T06:08:56.959Z,0.60
2019-02-21T06:11:27.182Z,0.60
2019-02-21T06:13:57.389Z,0.50
2019-02-21T06:16:32.649Z,0.50
2019-02-21T06:19:10.828Z,0.50
2019-02-21T06:22:09.693Z,0.50
2019-02-21T06:24:35.150Z,0.70
2019-02-21T06:27:14.163Z,0.60
2019-02-21T06:29:44.376Z,0.40
2019-02-21T06:32:14.452Z,0.30
2019-02-21T06:34:43.344Z,0.30
2019-02-21T06:37:12.788Z,0.30
2019-02-21T06:39:41.505Z,0.40
2019-02-21T06:42:10.091Z,0.40
2019-02-21T06:44:38.658Z,0.40
2019-02-21T06:47:07.244Z,0.50
2019-02-21T06:49:35.807Z,0.50
2019-02-21T06:52:04.391Z,0.70
2019-02-21T06:54:32.965Z,0.60
2019-02-21T06:57:01.543Z,0.50
2019-02-21T06:59:30.107Z,0.60
2019-02-21T07:01:58.699Z,0.70
2019-02-21T07:04:27.263Z,0.90
2019-02-21T07:06:56.845Z,0.90
2019-02-21T07:09:25.627Z,0.90
2019-02-21T07:11:54.202Z,0.90
2019-02-21T07:14:22.792Z,0.90
2019-02-21T07:16:51.362Z,1.10
2019-02-21T07:19:19.931Z,1.10
2019-02-21T07:21:48.522Z,1.30
2019-02-21T07:24:18.138Z,1.50
2019-02-21T07:26:46.779Z,1.60
2019-02-21T07:29:15.341Z,1.70
2019-02-21T07:31:43.934Z,1.70
2019-02-21T07:34:12.495Z,1.70
2019-02-21T07:36:41.085Z,1.80
2019-02-21T07:39:17.182Z,2.00
2019-02-21T07:41:41.690Z,2.10
2019-02-21T07:44:12.361Z,2.10
2019-02-21T07:46:40.425Z,2.20
2019-02-21T07:49:08.982Z,2.00
2019-02-21T07:51:37.568Z,2.00
2019-02-21T07:54:06.205Z,2.00
2019-02-21T07:56:41.880Z,2.20
2019-02-21T07:59:04.996Z,2.30
2019-02-21T08:01:33.579Z,2.50
2019-02-21T08:04:02.170Z,2.70
2019-02-21T08:06:30.749Z,2.80
2019-02-21T08:08:59.316Z,3.00
2019-02-21T08:11:27.907Z,3.20
2019-02-21T08:13:56.482Z,3.50
2019-02-21T08:16:25.072Z,3.60
2019-02-21T08:18:53.631Z,3.70
2019-02-21T08:21:22.215Z,3.90
2019-02-21T08:23:51.107Z,4.00
2019-02-21T08:26:20.195Z,4.10
2019-02-21T08:28:48.948Z,4.20
2019-02-21T08:31:17.518Z,4.30
2019-02-21T08:33:58.465Z,4.50
2019-02-21T08:36:20.899Z,4.70
2019-02-21T08:38:49.471Z,4.90
2019-02-21T08:41:18.051Z,5.10
2019-02-21T08:43:46.638Z,5.20
2019-02-21T08:46:18.025Z,5.30
2019-02-21T08:48:47.790Z,5.40
2019-02-21T08:51:18.176Z,5.50
2019-02-21T08:53:45.898Z,5.50
2019-02-21T08:56:14.467Z,5.70
2019-02-21T08:58:43.072Z,5.80
2019-02-21T09:01:11.890Z,5.90
2019-02-21T09:03:40.484Z,5.90
2019-02-21T09:06:09.047Z,6.00
2019-02-21T09:08:37.640Z,6.00
2019-02-21T09:11:06.276Z,6.10
2019-02-21T09:13:34.859Z,6.10
2019-02-21T09:16:03.592Z,6.20
2019-02-21T09:18:32.196Z,6.20
2019-02-21T09:21:00.760Z,6.20
2019-02-21T09:23:29.344Z,6.20
2019-02-21T09:25:57.915Z,6.30
2019-02-21T09:28:26.503Z,6.30
2019-02-21T09:30:55.067Z,6.30
2019-02-21T09:33:23.652Z,6.40
2019-02-21T09:35:52.215Z,6.40
2019-02-21T09:38:20.822Z,6.40
2019-02-21T09:40:49.388Z,6.40
2019-02-21T09:43:17.974Z,6.50
2019-02-21T09:45:46.534Z,6.50
2019-02-21T09:48:15.118Z,6.50
2019-02-21T09:50:43.693Z,6.50
2019-02-21T09:53:12.278Z,6.60
2019-02-21T09:55:40.839Z,6.60
2019-02-21T09:58:09.428Z,6.60
2019-02-21T10:00:38.005Z,6.60
2019-02-21T10:03:06.593Z,6.60
2019-02-21T10:05:35.181Z,6.60
2019-02-21T10:08:03.767Z,6.60
2019-02-21T10:10:32.334Z,6.60
2019-02-21T10:13:00.920Z,6.70
2019-02-21T10:15:31.426Z,6.70
2019-02-21T10:17:59.734Z,6.80
2019-02-21T10:20:28.300Z,6.80
2019-02-21T10:22:56.887Z,6.90
2019-02-21T10:25:30.931Z,6.90
2019-02-21T10:27:59.523Z,7.00
2019-02-21T10:30:28.226Z,7.20
2019-02-21T10:32:56.814Z,7.30
2019-02-21T10:35:25.455Z,7.40
2019-02-21T10:37:54.048Z,7.40
2019-02-21T10:40:22.681Z,7.40
2019-02-21T10:42:51.304Z,7.40
2019-02-21T10:45:21.510Z,7.40
2019-02-21T10:47:50.167Z,7.30
2019-02-21T10:50:19.883Z,7.30
2019-02-21T10:52:48.843Z,7.30
2019-02-21T10:55:18.435Z,7.20
2019-02-21T10:57:47.159Z,7.30
2019-02-21T11:00:25.014Z,7.40
2019-02-21T11:02:53.671Z,7.50
2019-02-21T11:05:22.239Z,7.60
2019-02-21T11:07:50.822Z,7.80
2019-02-21T11:10:22.463Z,7.90
2019-02-21T11:12:51.057Z,8.00
2019-02-21T11:15:21.877Z,8.00
2019-02-21T11:17:50.456Z,8.00
2019-02-21T11:20:19.874Z,8.00
2019-02-21T11:22:48.442Z,8.10
2019-02-21T11:25:17.085Z,8.30
2019-02-21T11:27:45.676Z,8.30
2019-02-21T11:30:16.744Z,8.40
2019-02-21T11:32:45.324Z,8.50
2019-02-21T11:35:14.374Z,8.60
2019-02-21T11:37:46.799Z,8.70
2019-02-21T11:40:15.486Z,8.70
2019-02-21T11:42:44.497Z,8.60
2019-02-21T11:45:20.491Z,8.70
2019-02-21T11:47:49.082Z,8.70
2019-02-21T11:50:20.662Z,8.70
2019-02-21T11:52:49.254Z,8.70
2019-02-21T11:55:27.003Z,8.80
2019-02-21T11:57:55.588Z,8.90
2019-02-21T12:00:28.790Z,8.80
2019-02-21T12:02:57.458Z,8.60
2019-02-21T12:05:31.521Z,8.50
2019-02-21T12:07:56.222Z,8.40
2019-02-21T12:10:24.817Z,8.40
2019-02-21T12:12:53.380Z,8.40
2019-02-21T12:15:21.982Z,8.30
2019-02-21T12:17:50.551Z,8.30
2019-02-21T12:20:20.075Z,8.30
2019-02-21T12:22:48.648Z,8.30
2019-02-21T12:25:20.321Z,8.30
2019-02-21T12:27:48.884Z,8.30
2019-02-21T12:30:18.824Z,8.20
2019-02-21T12:32:47.520Z,8.20
2019-02-21T12:35:16.174Z,8.20
2019-02-21T12:37:44.735Z,8.10
2019-02-21T12:40:16.031Z,8.10
2019-02-21T12:42:44.599Z,8.10
2019-02-21T12:45:15.607Z,8.10
2019-02-21T12:47:50.801Z,8.10
2019-02-21T12:50:14.675Z,8.10
2019-02-21T12:52:43.239Z,8.10
2019-02-21T12:55:12.267Z,8.10
2019-02-21T12:57:40.827Z,8.10
2019-02-21T13:00:17.780Z,8.10
2019-02-21T13:02:46.352Z,8.00
2019-02-21T13:05:15.009Z,8.00
2019-02-21T13:07:43.581Z,8.10
2019-02-21T13:10:19.787Z,8.10
2019-02-21T13:12:48.425Z,8.10
2019-02-21T13:15:16.936Z,8.10
2019-02-21T13:17:45.501Z,8.10
2019-02-21T13:20:15.222Z,8.10
2019-02-21T13:22:43.867Z,8.20
2019-02-21T13:25:14.387Z,8.10
2019-02-21T13:27:42.955Z,8.10
2019-02-21T13:30:13.979Z,8.10
2019-02-21T13:32:42.546Z,8.10
2019-02-21T13:35:11.483Z,8.00
2019-02-21T13:37:40.118Z,8.00
2019-02-21T13:40:13.978Z,8.10
2019-02-21T13:42:42.608Z,8.20
2019-02-21T13:45:13.435Z,8.40
2019-02-21T13:47:42.012Z,8.60
2019-02-21T13:50:15.343Z,8.60
2019-02-21T13:52:43.906Z,8.60
2019-02-21T13:55:12.642Z,8.70
2019-02-21T13:57:41.218Z,8.70
2019-02-21T14:00:18.160Z,8.80
2019-02-21T14:02:46.720Z,8.80
2019-02-21T14:05:15.307Z,8.70
2019-02-21T14:07:43.877Z,8.70
2019-02-21T14:10:13.707Z,8.70
2019-02-21T14:12:42.276Z,8.70
2019-02-21T14:15:14.004Z,8.60
2019-02-21T14:17:42.571Z,8.60
2019-02-21T14:20:11.223Z,8.60
2019-02-21T14:22:39.788Z,8.60
2019-02-21T14:25:11.015Z,8.60
2019-02-21T14:27:39.595Z,8.60
2019-02-21T14:30:18.815Z,8.80
2019-02-21T14:32:47.382Z,8.80
2019-02-21T14:35:16.316Z,8.80
2019-02-21T14:37:44.866Z,8.70
2019-02-21T14:40:17.532Z,8.70
2019-02-21T14:42:46.051Z,8.70
2019-02-21T14:45:20.052Z,8.70
2019-02-21T14:47:48.615Z,8.60
2019-02-21T14:50:17.275Z,8.50
2019-02-21T14:52:45.838Z,8.50
2019-02-21T14:55:15.371Z,8.40
2019-02-21T14:57:43.940Z,8.30
2019-02-21T15:00:23.206Z,8.30
2019-02-21T15:02:51.850Z,8.30
2019-02-21T15:05:20.831Z,8.30
2019-02-21T15:07:49.463Z,8.30
2019-02-21T15:10:18.052Z,8.20
2019-02-21T15:12:46.701Z,8.20
2019-02-21T15:15:17.995Z,8.20
2019-02-21T15:17:46.572Z,8.20
2019-02-21T15:20:16.603Z,8.20
2019-02-21T15:22:45.209Z,8.30
2019-02-21T15:25:14.023Z,8.30
2019-02-21T15:27:42.591Z,8.30
2019-02-21T15:30:14.125Z,8.30
2019-02-21T15:32:44.814Z,8.30
2019-02-21T15:35:13.089Z,8.30
2019-02-21T15:37:41.661Z,8.40
2019-02-21T15:40:10.588Z,8.40
2019-02-21T15:42:39.148Z,8.30
2019-02-21T15:45:22.407Z,8.30
2019-02-21T15:47:44.588Z,8.20
2019-02-21T15:50:14.319Z,8.20
2019-02-21T15:52:44.027Z,8.10
2019-02-21T15:55:14.958Z,8.00
2019-02-21T15:57:43.523Z,8.00
2019-02-21T16:00:19.646Z,8.00
2019-02-21T16:02:48.204Z,8.00
2019-02-21T16:05:16.796Z,8.00
2019-02-21T16:07:45.363Z,8.00
2019-02-21T16:10:22.776Z,8.00
2019-02-21T16:12:51.633Z,8.00
2019-02-21T16:15:20.341Z,8.00
2019-02-21T16:17:48.909Z,8.00
2019-02-21T16:20:19.711Z,7.90
2019-02-21T16:22:48.342Z,7.80
2019-02-21T16:25:31.277Z,7.80
2019-02-21T16:27:59.769Z,7.80
2019-02-21T16:30:28.370Z,7.80
2019-02-21T16:32:56.932Z,7.80
2019-02-21T16:35:27.307Z,7.70
2019-02-21T16:37:55.739Z,7.70
2019-02-21T16:40:24.324Z,7.70
2019-02-21T16:42:52.897Z,7.70
2019-02-21T16:45:22.620Z,7.70
2019-02-21T16:47:51.338Z,7.80
2019-02-21T16:50:29.443Z,7.70
2019-02-21T16:52:50.141Z,7.70
2019-02-21T16:55:20.938Z,7.70
2019-02-21T16:57:49.504Z,7.70
2019-02-21T17:00:21.902Z,7.70
2019-02-21T17:02:50.460Z,7.70
2019-02-21T17:05:19.053Z,7.60
2019-02-21T17:07:47.611Z,7.60
2019-02-21T17:10:17.185Z,7.60
2019-02-21T17:12:45.841Z,7.60
2019-02-21T17:15:15.982Z,7.50
2019-02-21T17:17:44.702Z,7.50
2019-02-21T17:20:24.018Z,7.50
2019-02-21T17:22:52.652Z,7.40
2019-02-21T17:25:21.157Z,7.40
2019-02-21T17:27:50.612Z,7.40
2019-02-21T17:30:19.715Z,7.40
2019-02-21T17:32:48.294Z,7.40
2019-02-21T17:35:16.927Z,7.40
2019-02-21T17:37:45.521Z,7.40
2019-02-21T17:40:17.172Z,7.30
2019-02-21T17:42:45.829Z,7.30
2019-02-21T17:45:14.466Z,7.20
2019-02-21T17:47:43.078Z,7.20
2019-02-21T17:50:13.882Z,7.20
2019-02-21T17:52:42.469Z,7.00
2019-02-21T17:55:11.576Z,7.00
2019-02-21T17:57:40.235Z,6.90
2019-02-21T18:00:11.875Z,6.80
2019-02-21T18:02:40.463Z,6.70
2019-02-21T18:05:10.368Z,6.60
2019-02-21T18:07:39.027Z,6.60
2019-02-21T18:10:11.241Z,6.50
2019-02-21T18:12:39.822Z,6.40
2019-02-21T18:15:10.630Z,6.40
2019-02-21T18:17:39.229Z,6.30
2019-02-21T18:20:10.640Z,6.30
2019-02-21T18:22:39.228Z,6.20
2019-02-21T18:25:13.460Z,6.30
2019-02-21T18:27:42.051Z,6.20
2019-02-21T18:30:13.836Z,6.20
2019-02-21T18:32:42.440Z,6.20
2019-02-21T18:35:11.751Z,6.20
2019-02-21T18:37:47.418Z,6.20
2019-02-21T18:40:17.167Z,6.20
2019-02-21T18:42:43.704Z,6.10
2019-02-21T18:45:12.403Z,6.20
2019-02-21T18:47:40.994Z,6.10
2019-02-21T18:50:12.203Z,6.10
2019-02-21T18:52:40.786Z,6.20
2019-02-21T18:55:09.899Z,6.20
2019-02-21T18:57:38.487Z,6.10
2019-02-21T19:00:09.878Z,6.10
2019-02-21T19:02:38.458Z,6.20
2019-02-21T19:05:08.071Z,6.20
2019-02-21T19:07:36.663Z,6.20
2019-02-21T19:10:10.871Z,6.30
2019-02-21T19:12:39.463Z,6.40
2019-02-21T19:15:10.430Z,6.40
2019-02-21T19:17:39.116Z,6.30
2019-02-21T19:20:12.593Z,6.20
2019-02-21T19:22:41.123Z,6.20
2019-02-21T19:25:11.036Z,6.10
2019-02-21T19:27:39.763Z,6.10
2019-02-21T19:30:14.566Z,6.10
2019-02-21T19:32:43.229Z,6.10
2019-02-21T19:35:11.800Z,6.20
2019-02-21T19:37:40.379Z,6.30
2019-02-21T19:40:10.283Z,6.20
2019-02-21T19:42:38.883Z,6.10
2019-02-21T19:45:08.891Z,6.10
2019-02-21T19:47:37.471Z,6.10
2019-02-21T19:50:09.876Z,6.10
2019-02-21T19:52:38.531Z,6.10
2019-02-21T19:55:09.239Z,6.00
2019-02-21T19:57:37.981Z,6.00
2019-02-21T20:00:16.379Z,6.00
2019-02-21T20:02:44.999Z,6.00
2019-02-21T20:05:14.703Z,6.00
2019-02-21T20:07:43.288Z,6.00
2019-02-21T20:10:11.859Z,6.00
2019-02-21T20:12:43.569Z,6.10
2019-02-21T20:15:12.747Z,6.10
2019-02-21T20:17:41.403Z,6.10
2019-02-21T20:20:21.223Z,6.10
2019-02-21T20:22:49.825Z,6.20
2019-02-21T20:25:18.392Z,6.20
2019-02-21T20:27:46.979Z,6.30
2019-02-21T20:30:17.655Z,6.40
2019-02-21T20:32:46.250Z,6.40
2019-02-21T20:35:15.291Z,6.40
2019-02-21T20:37:44.206Z,6.40
2019-02-21T20:40:12.913Z,6.40
2019-02-21T20:42:41.567Z,6.30
2019-02-21T20:45:15.064Z,6.30
2019-02-21T20:47:43.648Z,6.30
2019-02-21T20:50:15.218Z,6.30
2019-02-21T20:52:43.808Z,6.20
2019-02-21T20:55:12.710Z,6.20
2019-02-21T20:57:41.366Z,6.20
2019-02-21T21:00:15.359Z,6.20
2019-02-21T21:02:44.323Z,6.20
2019-02-21T21:05:12.968Z,6.20
2019-02-21T21:07:41.568Z,6.20
2019-02-21T21:10:14.848Z,6.10
2019-02-21T21:12:43.440Z,6.10
2019-02-21T21:15:14.220Z,6.10
2019-02-21T21:17:42.874Z,6.10
2019-02-21T21:20:17.098Z,6.10
2019-02-21T21:22:45.740Z,6.10
2019-02-21T21:25:20.292Z,6.10
2019-02-21T21:27:48.884Z,6.10
2019-02-21T21:30:18.234Z,6.10
2019-02-21T21:32:46.819Z,6.10
2019-02-21T21:35:15.394Z,6.10
2019-02-21T21:37:43.974Z,6.10
2019-02-21T21:40:15.003Z,6.10
2019-02-21T21:42:43.736Z,6.00
2019-02-21T21:45:18.662Z,6.00
2019-02-21T21:47:47.323Z,6.00
2019-02-21T21:50:17.735Z,6.10
2019-02-21T21:52:46.323Z,6.10
2019-02-21T21:55:15.134Z,6.00
2019-02-21T21:57:44.003Z,6.00
2019-02-21T22:00:23.463Z,6.00
2019-02-21T22:02:52.058Z,6.00
2019-02-21T22:05:20.691Z,6.00
2019-02-21T22:07:49.689Z,6.10
2019-02-21T22:10:18.481Z,6.10
2019-02-21T22:12:47.065Z,6.10
2019-02-21T22:15:18.243Z,6.10
2019-02-21T22:17:46.834Z,6.10
2019-02-21T22:20:15.408Z,6.10
2019-02-21T22:22:43.975Z,6.10
2019-02-21T22:25:13.916Z,6.10
2019-02-21T22:27:42.620Z,6.10
2019-02-21T22:30:21.027Z,6.10
2019-02-21T22:32:49.635Z,6.20
2019-02-21T22:35:18.205Z,6.20
2019-02-21T22:37:46.774Z,6.10
2019-02-21T22:40:17.480Z,6.10
2019-02-21T22:42:46.051Z,6.10
2019-02-21T22:45:14.643Z,6.10
2019-02-21T22:47:43.215Z,6.20
2019-02-21T22:50:14.620Z,6.20
2019-02-21T22:52:43.259Z,6.20
2019-02-21T22:55:11.919Z,6.20
2019-02-21T22:57:40.488Z,6.20
2019-02-21T23:00:31.691Z,6.20
2019-02-21T23:03:01.479Z,6.20
2019-02-21T23:05:52.735Z,6.20
2019-02-21T23:08:42.370Z,6.20
2019-02-21T23:11:11.211Z,6.20
2019-02-21T23:13:39.939Z,6.20
2019-02-21T23:16:08.584Z,6.20
2019-02-21T23:18:37.379Z,6.20
2019-02-21T23:21:05.951Z,6.20
2019-02-21T23:23:34.543Z,6.20
2019-02-21T23:26:03.111Z,6.20
2019-02-21T23:28:31.702Z,6.20
2019-02-21T23:31:00.277Z,6.20
2019-02-21T23:33:29.733Z,6.20
2019-02-21T23:35:58.307Z,6.20
2019-02-21T23:38:27.177Z,6.20
2019-02-21T23:40:55.739Z,6.30
2019-02-21T23:43:24.327Z,6.30
2019-02-21T23:45:52.909Z,6.30
2019-02-21T23:48:21.470Z,6.20
2019-02-21T23:50:50.059Z,6.20
2019-02-21T23:53:18.641Z,6.30
2019-02-21T23:55:47.218Z,6.30
2019-02-21T23:58:15.854Z,6.20
